GMTN/TTU METAR and TAF weather

Enter ICAO airport designator
Station Type Date Time Source
GMTN METAR 2019/04/21 22:00 UTC NOAA

GMTN 212200Z 24012KT 8000 R24///// FEW023 SCT050 BKN100 15/12 Q1007 NOSIG


Station Type Date Time Source
GMTN Decoded METAR 2019/04/21 22:00 UTC NOAA

Tetuan / Sania Ramel, Morocco (GMTN) 35-35N 005-20W 10M
Apr 21, 2019 - 06:00 PM EDT / 2019.04.21 2200 UTC
Wind: from the WSW (240 degrees) at 14 MPH (12 KT):0
Visibility: 4 mile(s):0
Sky conditions: mostly cloudy
Temperature: 59 F (15 C)
Dew Point: 53 F (12 C)
Relative Humidity: 82%
Pressure (altimeter): 29.74 in. Hg (1007 hPa)
ob: GMTN 212200Z 24012KT 8000 R24///// FEW023 SCT050 BKN100 15/12 Q1007 NOSIG
cycle: 22

Station Type Date Time Source
GMTN TAF UTC NOAA

Error!

Example: see airport list